createdAt,value
2018-04-10T00:01:37.895Z,8.67
2018-04-10T00:04:11.725Z,8.43
2018-04-10T00:06:42.456Z,8.03
2018-04-10T00:09:15.140Z,7.23
2018-04-10T00:11:58.437Z,6.57
2018-04-10T00:14:29.766Z,7.00
2018-04-10T00:17:04.050Z,7.73
2018-04-10T00:19:36.900Z,7.10
2018-04-10T00:22:07.400Z,7.20
2018-04-10T00:27:21.835Z,7.57
2018-04-10T00:29:51.102Z,6.83
2018-04-10T00:32:23.815Z,6.77
2018-04-10T00:34:56.937Z,7.53
2018-04-10T00:37:28.710Z,7.00
2018-04-10T00:40:05.399Z,7.60
2018-04-10T00:42:34.619Z,7.40
2018-04-10T00:45:05.653Z,7.07
2018-04-10T00:47:36.092Z,6.80
2018-04-10T00:50:07.240Z,5.87
2018-04-10T00:52:36.635Z,6.80
2018-04-10T00:55:08.188Z,6.70
2018-04-10T00:57:38.123Z,6.30
2018-04-10T01:00:08.512Z,7.47
2018-04-10T01:02:38.285Z,6.30
2018-04-10T01:05:09.301Z,6.37
2018-04-10T01:07:39.385Z,6.40
2018-04-10T01:10:08.643Z,6.40
2018-04-10T01:12:38.867Z,6.50
2018-04-10T01:15:11.789Z,6.70
2018-04-10T01:17:41.541Z,6.80
2018-04-10T01:20:12.795Z,5.53
2018-04-10T01:22:42.867Z,7.10
2018-04-10T01:25:12.929Z,6.43
2018-04-10T01:27:44.876Z,6.40
2018-04-10T01:30:16.439Z,5.80
2018-04-10T01:32:45.594Z,6.70
2018-04-10T01:35:16.677Z,6.70
2018-04-10T01:37:47.210Z,6.60
2018-04-10T01:40:18.128Z,5.97
2018-04-10T01:42:53.916Z,7.07
2018-04-10T01:45:27.794Z,6.07
2018-04-10T01:47:59.263Z,5.70
2018-04-10T01:50:28.850Z,6.57
2018-04-10T01:53:02.267Z,6.67
2018-04-10T01:55:31.418Z,6.00
2018-04-10T01:58:01.462Z,5.73
2018-04-10T02:00:31.338Z,6.20
2018-04-10T02:03:00.508Z,6.37
2018-04-10T02:05:30.410Z,5.80
2018-04-10T02:07:59.648Z,6.33
2018-04-10T02:10:28.803Z,6.43
2018-04-10T02:13:00.323Z,6.50
2018-04-10T02:15:29.479Z,6.57
2018-04-10T02:18:01.201Z,7.57
2018-04-10T02:20:32.131Z,6.20
2018-04-10T02:23:02.107Z,6.90
2018-04-10T02:25:33.022Z,7.00
2018-04-10T02:28:04.666Z,6.60
2018-04-10T02:30:36.038Z,6.97
2018-04-10T02:33:05.851Z,7.60
2018-04-10T02:35:37.701Z,6.80
2018-04-10T02:38:07.770Z,7.03
2018-04-10T02:40:38.746Z,6.17
2018-04-10T02:43:09.680Z,7.20
2018-04-10T02:45:39.692Z,6.20
2018-04-10T02:48:08.852Z,6.63
2018-04-10T02:50:40.807Z,6.33
2018-04-10T02:53:11.298Z,6.80
2018-04-10T02:55:42.134Z,7.23
2018-04-10T02:58:12.150Z,6.60
2018-04-10T03:00:41.909Z,5.77
2018-04-10T03:03:11.137Z,6.60
2018-04-10T03:05:41.603Z,6.47
2018-04-10T03:08:10.812Z,6.67
2018-04-10T03:10:40.861Z,6.30
2018-04-10T03:13:10.085Z,7.17
2018-04-10T03:15:40.799Z,6.90
2018-04-10T03:18:10.024Z,6.40
2018-04-10T03:20:41.980Z,7.03
2018-04-10T03:23:14.798Z,7.10
2018-04-10T03:25:46.350Z,5.70
2018-04-10T03:28:17.640Z,6.00
2018-04-10T03:30:48.412Z,6.53
2018-04-10T03:33:22.948Z,7.23
2018-04-10T03:35:52.147Z,7.20
2018-04-10T03:38:22.104Z,6.90
2018-04-10T03:40:52.704Z,7.40
2018-04-10T03:43:21.863Z,6.50
2018-04-10T03:45:53.060Z,6.80
2018-04-10T03:48:23.008Z,6.60
2018-04-10T03:50:52.239Z,6.70
2018-04-10T03:53:23.017Z,6.97
2018-04-10T03:55:53.738Z,6.80
2018-04-10T03:58:25.024Z,7.40
2018-04-10T04:00:56.259Z,6.83
2018-04-10T04:03:26.323Z,7.97
2018-04-10T04:05:57.343Z,7.57
2018-04-10T04:08:26.744Z,8.00
2018-04-10T04:10:56.784Z,6.77
2018-04-10T04:13:26.206Z,7.47
2018-04-10T04:15:56.683Z,6.87
2018-04-10T04:18:43.106Z,7.83
2018-04-10T04:21:19.931Z,7.17
2018-04-10T04:23:51.525Z,7.10
2018-04-10T04:26:21.551Z,7.40
2018-04-10T04:28:51.871Z,7.27
2018-04-10T04:31:22.220Z,7.47
2018-04-10T04:33:52.308Z,7.77
2018-04-10T04:36:21.532Z,8.20
2018-04-10T04:38:50.737Z,7.80
2018-04-10T04:41:22.263Z,7.87
2018-04-10T04:43:53.815Z,8.07
2018-04-10T04:46:24.394Z,8.37
2018-04-10T04:48:54.259Z,8.13
2018-04-10T04:51:24.329Z,8.27
2018-04-10T04:53:54.310Z,7.30
2018-04-10T04:56:24.322Z,8.87
2018-04-10T04:58:53.879Z,7.53
2018-04-10T05:01:24.692Z,7.63
2018-04-10T05:04:00.597Z,8.47
2018-04-10T05:06:29.820Z,9.10
2018-04-10T05:09:00.707Z,8.13
2018-04-10T05:11:30.719Z,7.87
2018-04-10T05:14:01.610Z,8.03
2018-04-10T05:16:32.186Z,7.70
2018-04-10T05:19:05.021Z,8.30
2018-04-10T05:21:35.274Z,7.80
2018-04-10T05:26:43.805Z,8.20
2018-04-10T05:29:17.087Z,8.27
2018-04-10T05:31:50.183Z,7.70
2018-04-10T05:34:19.383Z,7.50
2018-04-10T05:36:51.127Z,6.77
2018-04-10T05:39:21.623Z,8.13
2018-04-10T05:41:51.420Z,7.33
2018-04-10T05:44:27.401Z,6.97
2018-04-10T05:46:58.358Z,7.30
2018-04-10T05:49:28.218Z,8.00
2018-04-10T05:51:57.407Z,7.60
2018-04-10T05:54:26.555Z,8.00
2018-04-10T05:56:57.351Z,7.93
2018-04-10T05:59:27.432Z,7.77
2018-04-10T06:01:56.590Z,7.70
2018-04-10T06:04:26.581Z,7.93
2018-04-10T06:06:56.247Z,6.97
2018-04-10T06:09:26.574Z,7.97
2018-04-10T06:11:55.812Z,7.77
2018-04-10T06:14:26.238Z,6.33
2018-04-10T06:16:56.206Z,6.40
2018-04-10T06:19:26.211Z,6.90
2018-04-10T06:21:57.559Z,6.40
2018-04-10T06:24:28.599Z,7.37
2018-04-10T06:26:59.458Z,15.80
2018-04-10T06:29:29.992Z,33.60
2018-04-10T06:31:58.696Z,14.40
2018-04-10T06:34:29.578Z,9.70
2018-04-10T06:36:59.551Z,10.27
2018-04-10T06:39:30.104Z,9.10
2018-04-10T06:42:00.107Z,10.03
2018-04-10T06:47:16.000Z,9.80
2018-04-10T06:49:45.289Z,9.33
2018-04-10T06:52:14.469Z,10.20
2018-04-10T06:54:45.847Z,8.53
2018-04-10T06:57:15.888Z,8.87
2018-04-10T06:59:46.532Z,9.10
2018-04-10T07:02:16.124Z,8.10
2018-04-10T07:04:46.259Z,8.17
2018-04-10T07:07:16.832Z,8.70
2018-04-10T07:09:46.871Z,9.97
2018-04-10T07:12:16.026Z,10.53
2018-04-10T07:14:45.186Z,10.00
2018-04-10T07:17:14.335Z,11.37
2018-04-10T07:19:43.519Z,9.30
2018-04-10T07:22:12.718Z,9.33
2018-04-10T07:24:43.975Z,11.10
2018-04-10T07:27:13.162Z,9.73
2018-04-10T07:29:42.337Z,11.60
2018-04-10T07:32:12.283Z,10.97
2018-04-10T07:34:42.118Z,10.77
2018-04-10T07:37:12.019Z,11.50
2018-04-10T07:39:41.216Z,10.67
2018-04-10T07:42:11.003Z,9.80
2018-04-10T07:44:41.623Z,8.37
2018-04-10T07:47:11.011Z,9.10
2018-04-10T07:49:38.853Z,7.57
2018-04-10T07:52:06.630Z,7.27
2018-04-10T07:54:38.091Z,6.73
2018-04-10T07:57:06.137Z,7.57
2018-04-10T07:59:34.560Z,6.37
2018-04-10T08:02:02.806Z,6.50
2018-04-10T08:04:32.047Z,6.87
2018-04-10T08:07:00.439Z,6.03
2018-04-10T08:09:28.178Z,7.63
2018-04-10T08:11:55.811Z,6.77
2018-04-10T08:14:24.112Z,6.47
2018-04-10T08:16:51.607Z,6.80
2018-04-10T08:19:19.300Z,6.77
2018-04-10T08:21:46.852Z,6.67
2018-04-10T08:24:15.253Z,7.27
2018-04-10T08:26:42.930Z,6.13
2018-04-10T08:29:10.431Z,6.07
2018-04-10T08:31:39.133Z,6.30
2018-04-10T08:34:07.413Z,6.10
2018-04-10T08:36:36.225Z,6.60
2018-04-10T08:39:04.347Z,5.80
2018-04-10T08:41:33.747Z,5.53
2018-04-10T08:44:03.170Z,7.10
2018-04-10T08:46:31.578Z,8.00
2018-04-10T08:48:59.894Z,6.60
2018-04-10T08:51:27.412Z,5.83
2018-04-10T08:53:55.722Z,5.20
2018-04-10T08:56:24.379Z,5.30
2018-04-10T08:58:54.299Z,5.30
2018-04-10T09:01:23.770Z,4.63
2018-04-10T09:03:51.938Z,4.50
2018-04-10T09:06:20.733Z,5.23
2018-04-10T09:08:49.108Z,4.80
2018-04-10T09:11:20.678Z,4.43
2018-04-10T09:13:49.183Z,3.50
2018-04-10T09:16:16.733Z,3.60
2018-04-10T09:18:45.988Z,4.20
2018-04-10T09:21:14.421Z,4.00
2018-04-10T09:23:44.165Z,4.40
2018-04-10T09:26:12.525Z,4.43
2018-04-10T09:28:41.535Z,4.13
2018-04-10T09:31:09.805Z,4.80
2018-04-10T09:33:38.840Z,4.77
2018-04-10T09:36:09.213Z,3.90
2018-04-10T09:38:36.928Z,4.27
2018-04-10T09:41:06.268Z,4.33
2018-04-10T09:43:37.751Z,4.10
2018-04-10T09:46:06.435Z,4.43
2018-04-10T09:48:34.152Z,4.00
2018-04-10T09:51:01.727Z,5.43
2018-04-10T09:53:29.784Z,4.10
2018-04-10T09:55:59.223Z,4.50
2018-04-10T09:58:28.387Z,4.47
2018-04-10T10:00:56.808Z,5.17
2018-04-10T10:03:25.291Z,4.37
2018-04-10T10:05:55.465Z,5.53
2018-04-10T10:08:23.949Z,4.30
2018-04-10T10:10:52.321Z,4.80
2018-04-10T10:13:20.691Z,4.80
2018-04-10T10:15:48.254Z,5.50
2018-04-10T10:18:17.171Z,5.43
2018-04-10T10:20:44.703Z,4.73
2018-04-10T10:23:13.389Z,5.33
2018-04-10T10:25:41.371Z,6.17
2018-04-10T10:28:09.139Z,4.83
2018-04-10T10:30:39.288Z,5.40
2018-04-10T10:33:11.049Z,5.77
2018-04-10T10:35:40.700Z,5.87
2018-04-10T10:38:08.224Z,6.10
2018-04-10T10:40:36.843Z,9.10
2018-04-10T10:43:04.619Z,6.83
2018-04-10T10:45:33.475Z,6.33
2018-04-10T10:48:02.688Z,6.30
2018-04-10T10:50:32.739Z,6.87
2018-04-10T10:53:00.870Z,5.90
2018-04-10T10:55:29.252Z,7.10
2018-04-10T10:57:57.591Z,6.10
2018-04-10T11:00:25.979Z,6.67
2018-04-10T11:03:02.104Z,7.07
2018-04-10T11:05:29.878Z,6.83
2018-04-10T11:08:00.553Z,7.47
2018-04-10T11:10:30.254Z,7.23
2018-04-10T11:12:58.794Z,6.80
2018-04-10T11:15:29.524Z,6.23
2018-04-10T11:17:57.704Z,6.50
2018-04-10T11:20:28.182Z,7.07
2018-04-10T11:22:55.705Z,7.10
2018-04-10T11:25:25.396Z,7.47
2018-04-10T11:27:53.888Z,7.40
2018-04-10T11:30:21.940Z,6.13
2018-04-10T11:32:50.807Z,5.80
2018-04-10T11:35:20.517Z,6.80
2018-04-10T11:37:48.802Z,6.53
2018-04-10T11:40:18.116Z,6.30
2018-04-10T11:42:45.644Z,6.13
2018-04-10T11:45:13.419Z,6.77
2018-04-10T11:47:42.972Z,6.40
2018-04-10T11:50:11.150Z,7.97
2018-04-10T11:52:43.567Z,6.83
2018-04-10T11:55:15.565Z,7.33
2018-04-10T11:57:43.139Z,7.53
2018-04-10T12:00:11.803Z,7.10
2018-04-10T12:02:39.390Z,7.00
2018-04-10T12:05:08.340Z,6.90
2018-04-10T12:07:36.800Z,8.30
2018-04-10T12:10:05.947Z,7.13
2018-04-10T12:12:33.793Z,7.20
2018-04-10T12:15:02.731Z,7.03
2018-04-10T12:17:31.130Z,8.07
2018-04-10T12:19:59.035Z,8.77
2018-04-10T12:22:27.545Z,8.53
2018-04-10T12:24:57.643Z,7.73
2018-04-10T12:27:25.170Z,8.80
2018-04-10T12:29:52.984Z,9.03
2018-04-10T12:32:24.856Z,9.50
2018-04-10T12:34:56.136Z,8.57
2018-04-10T12:37:23.693Z,8.33
2018-04-10T12:39:51.495Z,8.93
2018-04-10T12:42:19.670Z,8.00
2018-04-10T12:44:48.971Z,8.80
2018-04-10T12:47:20.183Z,9.43
2018-04-10T12:49:49.027Z,9.80
2018-04-10T12:52:17.456Z,9.03
2018-04-10T12:54:45.127Z,10.67
2018-04-10T12:57:15.709Z,8.50
2018-04-10T12:59:44.002Z,9.00
2018-04-10T13:02:12.306Z,9.03
2018-04-10T13:04:40.336Z,9.00
2018-04-10T13:07:08.722Z,10.27
2018-04-10T13:09:38.032Z,9.77
2018-04-10T13:12:06.544Z,9.67
2018-04-10T13:14:34.130Z,9.23
2018-04-10T13:17:02.793Z,11.07
2018-04-10T13:19:30.306Z,8.90
2018-04-10T13:21:58.620Z,10.47
2018-04-10T13:24:26.919Z,9.40
2018-04-10T13:26:55.936Z,10.87
2018-04-10T13:29:24.955Z,10.60
2018-04-10T13:31:53.423Z,9.50
2018-04-10T13:34:23.671Z,10.20
2018-04-10T13:36:56.804Z,8.97
2018-04-10T13:39:25.408Z,8.27
2018-04-10T13:41:53.847Z,8.90
2018-04-10T13:44:23.764Z,9.53
2018-04-10T13:46:51.332Z,9.47
2018-04-10T13:49:19.116Z,9.43
2018-04-10T13:51:48.805Z,9.50
2018-04-10T13:54:16.362Z,10.20
2018-04-10T13:56:45.008Z,9.93
2018-04-10T13:59:15.575Z,9.10
2018-04-10T14:01:43.129Z,10.30
2018-04-10T14:04:11.132Z,9.30
2018-04-10T14:06:40.035Z,9.87
2018-04-10T14:09:09.840Z,10.90
2018-04-10T14:11:38.853Z,10.37
2018-04-10T14:14:07.673Z,12.40
2018-04-10T14:16:36.093Z,10.00
2018-04-10T14:19:04.578Z,10.67
2018-04-10T14:21:32.241Z,9.20
2018-04-10T14:24:00.427Z,9.30
2018-04-10T14:26:29.237Z,10.80
2018-04-10T14:28:59.067Z,13.10
2018-04-10T14:31:27.287Z,11.23
2018-04-10T14:33:57.847Z,10.10
2018-04-10T14:36:28.160Z,11.73
2018-04-10T14:38:56.698Z,11.60
2018-04-10T14:41:25.160Z,10.03
2018-04-10T14:43:54.584Z,10.47
2018-04-10T14:46:23.392Z,10.10
2018-04-10T14:48:51.833Z,11.47
2018-04-10T14:51:20.619Z,11.63
2018-04-10T14:53:48.592Z,9.30
2018-04-10T14:56:17.047Z,9.60
2018-04-10T14:58:47.275Z,9.30
2018-04-10T15:01:14.897Z,9.50
2018-04-10T15:03:44.126Z,8.97
2018-04-10T15:06:11.699Z,10.10
2018-04-10T15:08:39.262Z,11.90
2018-04-10T15:11:07.931Z,10.57
2018-04-10T15:13:37.000Z,11.00
2018-04-10T15:16:05.451Z,10.20
2018-04-10T15:18:33.035Z,8.27
2018-04-10T15:21:03.003Z,6.37
2018-04-10T15:23:32.076Z,6.10
2018-04-10T15:26:00.832Z,6.60
2018-04-10T15:28:31.140Z,7.10
2018-04-10T15:31:01.027Z,5.30
2018-04-10T15:33:29.903Z,5.87
2018-04-10T15:35:59.982Z,3.40
2018-04-10T15:38:29.841Z,2.90
2018-04-10T15:40:57.951Z,2.90
2018-04-10T15:43:29.744Z,2.93
2018-04-10T15:45:59.616Z,2.50
2018-04-10T15:48:29.308Z,2.90
2018-04-10T15:50:59.976Z,3.00
2018-04-10T15:53:30.232Z,2.90
2018-04-10T15:56:00.460Z,2.60
2018-04-10T15:58:30.555Z,2.20
2018-04-10T16:01:01.425Z,2.20
2018-04-10T16:03:31.511Z,2.40
2018-04-10T16:06:01.279Z,2.47
2018-04-10T16:08:32.786Z,2.53
2018-04-10T16:11:03.527Z,2.10
2018-04-10T16:13:33.734Z,1.93
2018-04-10T16:16:02.888Z,1.97
2018-04-10T16:18:33.334Z,1.83
2018-04-10T16:21:02.767Z,2.60
2018-04-10T16:23:32.966Z,2.50
2018-04-10T16:26:02.992Z,2.57
2018-04-10T16:28:32.155Z,2.97
2018-04-10T16:31:01.294Z,3.10
2018-04-10T16:33:31.259Z,2.73
2018-04-10T16:36:01.171Z,2.17
2018-04-10T16:38:31.208Z,2.93
2018-04-10T16:41:03.779Z,2.50
2018-04-10T16:43:33.710Z,2.60
2018-04-10T16:46:02.843Z,2.90
2018-04-10T16:48:32.415Z,2.70
2018-04-10T16:51:02.409Z,3.10
2018-04-10T16:53:32.050Z,2.90
2018-04-10T16:56:02.100Z,2.93
2018-04-10T16:58:32.187Z,2.53
2018-04-10T17:01:02.215Z,2.50
2018-04-10T17:03:32.254Z,3.13
2018-04-10T17:06:01.425Z,3.20
2018-04-10T17:08:31.469Z,2.70
2018-04-10T17:11:00.626Z,2.87
2018-04-10T17:13:31.450Z,2.93
2018-04-10T17:16:01.944Z,3.67
2018-04-10T17:18:31.803Z,2.50
2018-04-10T17:21:01.751Z,3.20
2018-04-10T17:23:33.059Z,3.40
2018-04-10T17:26:03.444Z,3.60
2018-04-10T17:28:32.638Z,3.03
2018-04-10T17:31:01.788Z,2.93
2018-04-10T17:33:31.037Z,3.40
2018-04-10T17:36:00.967Z,3.53
2018-04-10T17:38:30.116Z,3.50
2018-04-10T17:41:01.341Z,3.30
2018-04-10T17:43:30.491Z,3.10
2018-04-10T17:46:00.326Z,3.23
2018-04-10T17:48:31.970Z,3.73
2018-04-10T17:51:01.135Z,3.60
2018-04-10T17:53:31.823Z,5.53
2018-04-10T17:56:01.016Z,3.50
2018-04-10T17:58:30.233Z,2.83
2018-04-10T18:01:00.032Z,3.83
2018-04-10T18:03:29.591Z,8.13
2018-04-10T18:06:00.344Z,5.47
2018-04-10T18:08:29.560Z,4.77
2018-04-10T18:11:01.488Z,3.80
2018-04-10T18:13:31.588Z,3.87
2018-04-10T18:16:02.122Z,3.50
2018-04-10T18:18:32.165Z,4.40
2018-04-10T18:21:01.983Z,3.27
2018-04-10T18:23:31.803Z,3.60
2018-04-10T18:26:04.486Z,6.87
2018-04-10T18:28:33.701Z,3.97
2018-04-10T18:31:12.427Z,2.43
2018-04-10T18:33:43.432Z,2.03
2018-04-10T18:36:12.772Z,2.27
2018-04-10T18:38:44.180Z,2.03
2018-04-10T18:41:15.698Z,2.63
2018-04-10T18:43:45.961Z,2.07
2018-04-10T18:46:16.463Z,1.87
2018-04-10T18:48:46.001Z,1.90
2018-04-10T18:51:21.733Z,1.73
2018-04-10T18:53:54.109Z,2.00
2018-04-10T18:56:24.176Z,2.10
2018-04-10T18:59:10.385Z,1.83
2018-04-10T19:01:42.331Z,2.13
2018-04-10T19:04:15.015Z,3.20
2018-04-10T19:06:45.979Z,2.70
2018-04-10T19:09:24.523Z,5.30
2018-04-10T19:11:56.220Z,1.73
2018-04-10T19:14:27.503Z,1.70
2018-04-10T19:16:57.421Z,1.63
2018-04-10T19:19:26.625Z,1.90
2018-04-10T19:21:56.447Z,2.10
2018-04-10T19:24:26.299Z,1.73
2018-04-10T19:26:56.543Z,1.90
2018-04-10T19:29:26.402Z,1.50
2018-04-10T19:31:55.576Z,2.00
2018-04-10T19:34:25.499Z,1.53
2018-04-10T19:36:55.346Z,1.30
2018-04-10T19:39:24.510Z,1.80
2018-04-10T19:41:54.591Z,1.20
2018-04-10T19:44:24.448Z,1.70
2018-04-10T19:46:53.733Z,1.30
2018-04-10T19:49:25.085Z,1.57
2018-04-10T19:51:54.282Z,1.70
2018-04-10T19:54:24.033Z,1.57
2018-04-10T19:56:53.166Z,1.67
2018-04-10T19:59:23.388Z,1.60
2018-04-10T20:01:54.826Z,1.60
2018-04-10T20:04:25.332Z,1.53
2018-04-10T20:06:55.477Z,1.30
2018-04-10T20:09:25.091Z,1.97
2018-04-10T20:11:54.620Z,2.23
2018-04-10T20:14:23.837Z,1.33
2018-04-10T20:16:53.075Z,0.93
2018-04-10T20:19:22.251Z,1.53
2018-04-10T20:21:51.391Z,1.60
2018-04-10T20:24:21.459Z,1.47
2018-04-10T20:26:50.606Z,1.40
2018-04-10T20:29:28.802Z,1.40
2018-04-10T20:31:58.551Z,1.50
2018-04-10T20:34:28.647Z,1.40
2018-04-10T20:36:58.153Z,1.50
2018-04-10T20:39:28.547Z,1.57
2018-04-10T20:41:58.660Z,1.30
2018-04-10T20:44:28.800Z,1.40
2018-04-10T20:46:58.883Z,1.20
2018-04-10T20:49:37.184Z,1.00
2018-04-10T20:52:06.377Z,1.20
2018-04-10T20:54:38.852Z,1.60
2018-04-10T20:57:10.073Z,1.27
2018-04-10T20:59:39.582Z,1.30
2018-04-10T21:02:09.598Z,1.87
2018-04-10T21:04:39.969Z,1.57
2018-04-10T21:07:09.980Z,1.13
2018-04-10T21:09:39.371Z,1.50
2018-04-10T21:12:10.462Z,2.33
2018-04-10T21:14:40.100Z,1.70
2018-04-10T21:17:09.263Z,1.80
2018-04-10T21:19:40.651Z,3.50
2018-04-10T21:22:09.810Z,4.70
2018-04-10T21:24:40.530Z,5.47
2018-04-10T21:27:11.659Z,4.43
2018-04-10T21:29:42.301Z,4.03
2018-04-10T21:32:14.431Z,3.27
2018-04-10T21:34:44.366Z,3.63
2018-04-10T21:37:14.231Z,2.60
2018-04-10T21:39:44.958Z,1.50
2018-04-10T21:42:15.690Z,1.43
2018-04-10T21:44:46.433Z,1.43
2018-04-10T21:47:18.274Z,1.67
2018-04-10T21:49:47.458Z,2.27
2018-04-10T21:52:19.260Z,1.70
2018-04-10T21:57:28.759Z,1.60
2018-04-10T22:00:02.543Z,1.63
2018-04-10T22:02:31.701Z,1.97
2018-04-10T22:05:01.513Z,1.80
2018-04-10T22:07:32.275Z,1.80
2018-04-10T22:10:02.439Z,2.50
2018-04-10T22:12:33.608Z,1.70
2018-04-10T22:15:05.307Z,2.23
2018-04-10T22:17:39.420Z,1.87
2018-04-10T22:20:11.862Z,1.83
2018-04-10T22:22:43.575Z,1.63
2018-04-10T22:25:15.217Z,2.20
2018-04-10T22:27:45.783Z,2.33
2018-04-10T22:30:16.548Z,2.13
2018-04-10T22:32:47.106Z,2.00
2018-04-10T22:35:17.827Z,1.90
2018-04-10T22:37:49.659Z,2.00
2018-04-10T22:40:19.907Z,1.90
2018-04-10T22:42:49.079Z,1.97
2018-04-10T22:45:20.379Z,2.20
2018-04-10T22:47:51.019Z,2.13
2018-04-10T22:50:26.864Z,2.60
2018-04-10T22:52:57.448Z,2.40
2018-04-10T22:55:27.782Z,2.80
2018-04-10T22:58:02.588Z,2.30
2018-04-10T23:00:31.838Z,3.40
2018-04-10T23:03:01.453Z,2.67
2018-04-10T23:05:39.289Z,2.70
2018-04-10T23:08:11.128Z,2.53
2018-04-10T23:10:40.899Z,2.63
2018-04-10T23:13:14.888Z,2.60
2018-04-10T23:15:45.630Z,3.00
2018-04-10T23:18:15.904Z,3.50
2018-04-10T23:20:45.056Z,2.80
2018-04-10T23:23:15.274Z,2.83
2018-04-10T23:25:45.349Z,2.40
2018-04-10T23:28:19.551Z,3.33
2018-04-10T23:30:51.180Z,3.27
2018-04-10T23:33:21.746Z,2.40
2018-04-10T23:35:50.979Z,2.93
2018-04-10T23:38:20.978Z,3.40
2018-04-10T23:40:51.551Z,3.20
2018-04-10T23:43:21.577Z,3.23
2018-04-10T23:45:53.413Z,3.50
2018-04-10T23:48:25.427Z,3.27
2018-04-10T23:50:55.714Z,2.80
2018-04-10T23:53:24.871Z,3.20
2018-04-10T23:55:54.075Z,3.20
2018-04-10T23:58:23.236Z,3.37
